createdAt,value
2018-11-05T00:00:38.435Z,87.88
2018-11-05T00:03:09.278Z,90.20
2018-11-05T00:05:39.739Z,90.62
2018-11-05T00:08:10.348Z,93.17
2018-11-05T00:10:44.041Z,90.65
2018-11-05T00:13:14.574Z,95.17
2018-11-05T00:15:45.080Z,97.12
2018-11-05T00:18:15.543Z,90.53
2018-11-05T00:20:46.037Z,99.75
2018-11-05T00:23:16.612Z,96.60
2018-11-05T00:25:47.121Z,98.12
2018-11-05T00:28:17.551Z,94.75
2018-11-05T00:30:48.039Z,99.05
2018-11-05T00:33:18.470Z,95.90
2018-11-05T00:35:48.953Z,101.87
2018-11-05T00:38:19.388Z,96.32
2018-11-05T00:40:49.877Z,95.75
2018-11-05T00:43:20.296Z,97.02
2018-11-05T00:45:50.847Z,97.40
2018-11-05T00:48:21.279Z,90.97
2018-11-05T00:50:51.763Z,98.87
2018-11-05T00:53:22.197Z,94.32
2018-11-05T00:55:52.708Z,93.25
2018-11-05T00:58:23.192Z,98.97
2018-11-05T01:00:53.700Z,94.28
2018-11-05T01:03:24.143Z,103.12
2018-11-05T01:05:54.604Z,100.10
2018-11-05T01:08:25.142Z,94.87
2018-11-05T01:10:55.569Z,102.53
2018-11-05T01:13:26.026Z,103.65
2018-11-05T01:15:56.561Z,101.42
2018-11-05T01:18:27.015Z,96.25
2018-11-05T01:20:57.480Z,108.70
2018-11-05T01:23:27.942Z,95.40
2018-11-05T01:25:58.377Z,97.42
2018-11-05T01:28:28.803Z,105.50
2018-11-05T01:30:59.229Z,99.85
2018-11-05T01:33:29.756Z,95.57
2018-11-05T01:36:00.212Z,102.62
2018-11-05T01:38:30.701Z,98.10
2018-11-05T01:41:01.137Z,102.07
2018-11-05T01:43:31.593Z,97.95
2018-11-05T01:46:02.173Z,96.92
2018-11-05T01:48:32.565Z,99.32
2018-11-05T01:51:03.142Z,92.35
2018-11-05T01:53:33.584Z,97.05
2018-11-05T01:56:04.045Z,98.70
2018-11-05T01:58:34.470Z,97.60
2018-11-05T02:01:05.228Z,95.70
2018-11-05T02:03:35.750Z,96.40
2018-11-05T02:06:06.372Z,99.95
2018-11-05T02:08:36.825Z,98.80
2018-11-05T02:11:07.344Z,94.92
2018-11-05T02:13:37.782Z,95.28
2018-11-05T02:16:08.329Z,102.92
2018-11-05T02:18:38.810Z,99.47
2018-11-05T02:21:09.239Z,98.80
2018-11-05T02:23:39.655Z,100.53
2018-11-05T02:26:10.188Z,97.70
2018-11-05T02:28:40.631Z,106.52
2018-11-05T02:31:11.107Z,97.82
2018-11-05T02:33:41.569Z,102.42
2018-11-05T02:36:12.544Z,91.22
2018-11-05T02:38:42.989Z,89.28
2018-11-05T02:41:13.441Z,97.22
2018-11-05T02:43:43.880Z,95.15
2018-11-05T02:46:14.628Z,106.22
2018-11-05T02:48:45.110Z,104.15
2018-11-05T02:51:15.553Z,97.65
2018-11-05T02:53:46.003Z,103.87
2018-11-05T02:56:16.457Z,107.00
2018-11-05T02:58:47.023Z,99.25
2018-11-05T03:01:17.514Z,104.90
2018-11-05T03:03:47.995Z,99.97
2018-11-05T03:06:18.507Z,96.55
2018-11-05T03:08:48.938Z,98.80
2018-11-05T03:11:19.417Z,102.65
2018-11-05T03:16:20.396Z,100.65
2018-11-05T03:18:50.858Z,101.67
2018-11-05T03:21:21.317Z,94.85
2018-11-05T03:23:51.789Z,102.82
2018-11-05T03:26:22.289Z,103.25
2018-11-05T03:28:52.707Z,94.95
2018-11-05T03:31:23.207Z,104.07
2018-11-05T03:36:24.457Z,94.90
2018-11-05T03:38:54.926Z,101.27
2018-11-05T03:41:25.363Z,100.62
2018-11-05T03:43:55.864Z,107.58
2018-11-05T03:46:26.561Z,103.47
2018-11-05T03:48:57.033Z,107.30
2018-11-05T03:51:27.469Z,99.20
2018-11-05T03:53:59.633Z,98.55
2018-11-05T03:56:30.087Z,101.07
2018-11-05T03:59:00.678Z,98.22
2018-11-05T04:01:31.037Z,103.12
2018-11-05T04:04:01.533Z,104.23
2018-11-05T04:06:32.000Z,105.67
2018-11-05T04:09:02.565Z,105.27
2018-11-05T04:11:33.013Z,110.20
2018-11-05T04:14:03.502Z,104.25
2018-11-05T04:16:34.149Z,98.90
2018-11-05T04:19:04.907Z,100.15
2018-11-05T04:21:45.070Z,102.67
2018-11-05T04:24:16.307Z,109.70
2018-11-05T04:26:46.983Z,102.35
2018-11-05T04:29:17.536Z,103.92
2018-11-05T04:31:47.964Z,107.00
2018-11-05T04:34:18.451Z,103.90
2018-11-05T04:36:48.949Z,99.28
2018-11-05T04:39:19.432Z,103.55
2018-11-05T04:41:49.850Z,108.63
2018-11-05T04:44:20.299Z,99.95
2018-11-05T04:46:50.789Z,110.78
2018-11-05T04:49:21.257Z,106.05
2018-11-05T04:51:51.670Z,110.92
2018-11-05T04:54:22.153Z,124.42
2018-11-05T04:56:52.592Z,120.50
2018-11-05T04:59:23.042Z,114.08
2018-11-05T05:01:56.264Z,112.92
2018-11-05T05:04:26.734Z,113.57
2018-11-05T05:06:57.406Z,109.12
2018-11-05T05:09:27.885Z,120.55
2018-11-05T05:11:58.332Z,111.32
2018-11-05T05:14:28.801Z,120.55
2018-11-05T05:16:59.223Z,119.87
2018-11-05T05:19:29.712Z,119.15
2018-11-05T05:22:00.288Z,118.97
2018-11-05T05:24:30.780Z,121.77
2018-11-05T05:27:01.281Z,120.65
2018-11-05T05:29:31.869Z,117.53
2018-11-05T05:32:02.219Z,120.67
2018-11-05T05:34:32.714Z,117.30
2018-11-05T05:37:03.220Z,125.42
2018-11-05T05:39:33.692Z,118.15
2018-11-05T05:42:04.137Z,120.67
2018-11-05T05:44:34.622Z,127.97
2018-11-05T05:47:05.181Z,124.67
2018-11-05T05:49:35.987Z,120.92
2018-11-05T05:52:06.434Z,120.05
2018-11-05T05:54:36.902Z,119.72
2018-11-05T05:57:07.424Z,128.50
2018-11-05T05:59:37.859Z,124.12
2018-11-05T06:02:08.627Z,126.92
2018-11-05T06:04:39.108Z,123.45
2018-11-05T06:07:09.616Z,131.67
2018-11-05T06:09:40.036Z,127.20
2018-11-05T06:12:13.556Z,142.30
2018-11-05T06:14:44.648Z,131.22
2018-11-05T06:17:15.756Z,144.68
2018-11-05T06:19:46.719Z,153.78
2018-11-05T06:22:17.366Z,138.07
2018-11-05T06:24:47.898Z,138.45
2018-11-05T06:27:18.374Z,139.05
2018-11-05T06:29:49.017Z,136.40
2018-11-05T06:32:19.368Z,138.12
2018-11-05T06:34:49.823Z,139.55
2018-11-05T06:37:20.315Z,138.55
2018-11-05T06:39:50.783Z,136.20
2018-11-05T06:42:21.214Z,136.22
2018-11-05T06:44:51.727Z,131.87
2018-11-05T06:47:22.168Z,134.65
2018-11-05T06:49:52.677Z,120.28
2018-11-05T06:52:23.105Z,128.75
2018-11-05T06:54:53.619Z,133.00
2018-11-05T06:57:24.066Z,139.47
2018-11-05T06:59:54.512Z,122.75
2018-11-05T07:02:25.012Z,123.92
2018-11-05T07:04:55.440Z,127.70
2018-11-05T07:07:25.930Z,127.32
2018-11-05T07:09:56.440Z,126.62
2018-11-05T07:12:26.884Z,118.70
2018-11-05T07:14:57.334Z,127.17
2018-11-05T07:17:27.954Z,118.15
2018-11-05T07:19:58.387Z,110.68
2018-11-05T07:22:28.845Z,117.35
2018-11-05T07:24:59.294Z,121.15
2018-11-05T07:27:29.822Z,134.18
2018-11-05T07:30:00.250Z,151.22
2018-11-05T07:32:30.752Z,115.90
2018-11-05T07:35:01.329Z,103.30
2018-11-05T07:37:31.741Z,107.90
2018-11-05T07:40:02.196Z,103.92
2018-11-05T07:42:32.689Z,100.47
2018-11-05T07:45:03.197Z,94.07
2018-11-05T07:47:33.662Z,99.72
2018-11-05T07:50:04.172Z,92.92
2018-11-05T07:52:34.645Z,100.33
2018-11-05T07:55:05.120Z,89.52
2018-11-05T07:57:35.578Z,88.87
2018-11-05T08:00:26.513Z,93.50
2018-11-05T08:02:57.870Z,85.22
2018-11-05T08:05:28.259Z,85.38
2018-11-05T08:07:58.683Z,92.33
2018-11-05T08:10:29.204Z,83.70
2018-11-05T08:12:59.681Z,79.60
2018-11-05T08:15:30.167Z,78.00
2018-11-05T08:18:00.624Z,83.55
2018-11-05T08:20:31.058Z,77.20
2018-11-05T08:23:01.504Z,76.25
2018-11-05T08:25:32.043Z,73.60
2018-11-05T08:28:02.486Z,80.05
2018-11-05T08:30:32.954Z,76.35
2018-11-05T08:33:03.755Z,71.77
2018-11-05T08:35:34.117Z,73.17
2018-11-05T08:38:04.543Z,69.32
2018-11-05T08:40:35.001Z,68.10
2018-11-05T08:43:05.625Z,61.18
2018-11-05T08:45:36.106Z,68.57
2018-11-05T08:48:06.786Z,69.82
2018-11-05T08:50:37.406Z,65.47
2018-11-05T08:53:07.739Z,59.40
2018-11-05T08:55:38.236Z,58.63
2018-11-05T08:58:08.683Z,60.23
2018-11-05T09:00:48.322Z,61.18
2018-11-05T09:03:18.804Z,62.45
2018-11-05T09:05:49.268Z,60.38
2018-11-05T09:08:19.752Z,57.27
2018-11-05T09:10:50.542Z,53.75
2018-11-05T09:13:20.716Z,53.35
2018-11-05T09:15:52.125Z,49.10
2018-11-05T09:18:22.595Z,48.65
2018-11-05T09:20:53.090Z,46.33
2018-11-05T09:23:23.632Z,51.68
2018-11-05T09:25:54.168Z,49.30
2018-11-05T09:28:24.638Z,45.08
2018-11-05T09:30:55.125Z,50.75
2018-11-05T09:33:25.570Z,45.85
2018-11-05T09:35:56.080Z,43.23
2018-11-05T09:38:26.467Z,48.20
2018-11-05T09:40:56.994Z,45.50
2018-11-05T09:43:27.503Z,46.70
2018-11-05T09:45:57.992Z,45.92
2018-11-05T09:48:28.769Z,46.80
2018-11-05T09:50:59.275Z,46.65
2018-11-05T09:53:29.700Z,45.92
2018-11-05T09:56:00.184Z,40.67
2018-11-05T09:58:30.807Z,44.95
2018-11-05T10:01:01.257Z,43.13
2018-11-05T10:03:31.963Z,39.05
2018-11-05T10:06:02.306Z,43.87
2018-11-05T10:08:32.811Z,37.38
2018-11-05T10:11:03.326Z,37.93
2018-11-05T10:13:33.917Z,43.45
2018-11-05T10:16:04.536Z,41.25
2018-11-05T10:18:35.201Z,42.40
2018-11-05T10:21:05.754Z,39.55
2018-11-05T10:23:36.357Z,39.35
2018-11-05T10:26:07.049Z,36.93
2018-11-05T10:28:37.486Z,35.98
2018-11-05T10:31:07.951Z,38.55
2018-11-05T10:33:38.703Z,40.78
2018-11-05T10:36:09.081Z,31.62
2018-11-05T10:38:39.583Z,35.50
2018-11-05T10:41:10.007Z,37.63
2018-11-05T10:43:40.584Z,34.50
2018-11-05T10:46:11.118Z,37.35
2018-11-05T10:48:41.577Z,38.73
2018-11-05T10:51:12.123Z,38.20
2018-11-05T10:53:42.482Z,41.02
2018-11-05T10:56:12.938Z,38.28
2018-11-05T10:58:43.398Z,35.92
2018-11-05T11:01:15.253Z,35.33
2018-11-05T11:04:03.411Z,40.00
2018-11-05T11:06:33.595Z,36.15
2018-11-05T11:09:04.882Z,32.48
2018-11-05T11:11:35.349Z,30.45
2018-11-05T11:14:05.820Z,34.92
2018-11-05T11:16:36.315Z,33.73
2018-11-05T11:19:07.023Z,36.40
2018-11-05T11:21:37.510Z,31.57
2018-11-05T11:24:07.960Z,33.08
2018-11-05T11:26:38.644Z,33.40
2018-11-05T11:29:09.317Z,32.35
2018-11-05T11:31:40.244Z,31.62
2018-11-05T11:34:10.637Z,32.40
2018-11-05T11:36:41.164Z,30.23
2018-11-05T11:39:12.804Z,33.33
2018-11-05T11:41:43.288Z,33.45
2018-11-05T11:44:13.803Z,32.60
2018-11-05T11:46:44.179Z,36.25
2018-11-05T11:49:14.733Z,29.12
2018-11-05T11:51:45.178Z,33.02
2018-11-05T11:54:15.687Z,31.30
2018-11-05T11:56:46.266Z,41.23
2018-11-05T11:59:16.812Z,30.12
2018-11-05T12:02:04.318Z,34.10
2018-11-05T12:04:34.952Z,30.82
2018-11-05T12:07:05.504Z,27.37
2018-11-05T12:09:35.991Z,27.17
2018-11-05T12:12:07.166Z,29.55
2018-11-05T12:14:38.640Z,27.95
2018-11-05T12:17:08.963Z,26.68
2018-11-05T12:19:39.496Z,27.60
2018-11-05T12:22:09.922Z,35.40
2018-11-05T12:24:48.953Z,26.80
2018-11-05T12:27:19.474Z,27.58
2018-11-05T12:29:49.912Z,25.57
2018-11-05T12:32:20.416Z,29.90
2018-11-05T12:34:50.884Z,30.37
2018-11-05T12:37:21.363Z,27.00
2018-11-05T12:39:51.810Z,32.53
2018-11-05T12:42:22.306Z,29.85
2018-11-05T12:44:52.752Z,26.00
2018-11-05T12:47:23.197Z,28.90
2018-11-05T12:49:53.754Z,28.05
2018-11-05T12:52:24.218Z,30.15
2018-11-05T12:54:54.783Z,29.65
2018-11-05T12:57:25.246Z,30.92
2018-11-05T12:59:55.745Z,28.38
2018-11-05T13:02:27.271Z,32.08
2018-11-05T13:04:57.744Z,38.38
2018-11-05T13:07:28.193Z,67.30
2018-11-05T13:09:58.650Z,47.45
2018-11-05T13:12:29.101Z,36.42
2018-11-05T13:14:59.650Z,30.25
2018-11-05T13:17:30.115Z,37.78
2018-11-05T13:20:00.596Z,29.72
2018-11-05T13:22:31.090Z,31.62
2018-11-05T13:25:01.661Z,27.42
2018-11-05T13:27:32.044Z,33.70
2018-11-05T13:30:02.578Z,31.50
2018-11-05T13:32:33.077Z,26.50
2018-11-05T13:35:03.907Z,28.92
2018-11-05T13:37:34.971Z,25.27
2018-11-05T13:40:05.268Z,29.18
2018-11-05T13:42:35.771Z,29.90
2018-11-05T13:45:07.105Z,30.80
2018-11-05T13:47:38.203Z,33.70
2018-11-05T13:50:09.030Z,26.85
2018-11-05T13:52:39.708Z,28.57
2018-11-05T13:55:12.525Z,26.37
2018-11-05T13:57:44.272Z,27.42
2018-11-05T14:00:16.147Z,30.70
2018-11-05T14:02:46.689Z,29.80
2018-11-05T14:05:17.212Z,35.95
2018-11-05T14:07:47.733Z,35.05
2018-11-05T14:10:19.741Z,31.02
2018-11-05T14:12:50.617Z,31.12
2018-11-05T14:15:21.517Z,28.55
2018-11-05T14:17:51.979Z,31.07
2018-11-05T14:20:22.516Z,28.77
2018-11-05T14:22:52.980Z,26.15
2018-11-05T14:25:23.488Z,30.23
2018-11-05T14:27:54.052Z,33.38
2018-11-05T14:30:24.399Z,33.38
2018-11-05T14:32:54.915Z,32.65
2018-11-05T14:35:25.397Z,34.35
2018-11-05T14:37:55.870Z,37.25
2018-11-05T14:40:26.308Z,34.85
2018-11-05T14:42:56.825Z,30.72
2018-11-05T14:45:27.222Z,33.65
2018-11-05T14:47:57.687Z,34.38
2018-11-05T14:50:28.197Z,46.90
2018-11-05T14:52:58.651Z,44.73
2018-11-05T14:55:29.144Z,43.70
2018-11-05T14:57:59.644Z,37.25
2018-11-05T15:00:30.111Z,34.75
2018-11-05T15:03:00.715Z,43.83
2018-11-05T15:05:31.199Z,45.90
2018-11-05T15:08:01.728Z,53.45
2018-11-05T15:10:32.161Z,90.80
2018-11-05T15:13:02.721Z,170.02
2018-11-05T15:15:33.176Z,169.30
2018-11-05T15:18:03.695Z,92.45
2018-11-05T15:20:34.223Z,78.52
2018-11-05T15:23:04.598Z,54.63
2018-11-05T15:25:35.145Z,75.67
2018-11-05T15:28:05.773Z,66.87
2018-11-05T15:30:36.274Z,68.55
2018-11-05T15:33:06.791Z,62.75
2018-11-05T15:35:37.317Z,78.65
2018-11-05T15:38:08.027Z,107.07
2018-11-05T15:40:38.442Z,139.75
2018-11-05T15:43:08.887Z,129.82
2018-11-05T15:45:39.422Z,106.45
2018-11-05T15:48:09.887Z,85.40
2018-11-05T15:50:41.369Z,83.15
2018-11-05T15:53:12.095Z,70.57
2018-11-05T15:55:42.284Z,59.95
2018-11-05T15:58:12.753Z,56.13
2018-11-05T16:00:43.243Z,91.20
2018-11-05T16:03:14.189Z,85.77
2018-11-05T16:05:44.619Z,68.95
2018-11-05T16:08:15.048Z,69.77
2018-11-05T16:10:45.504Z,68.45
2018-11-05T16:13:15.974Z,58.15
2018-11-05T16:15:46.482Z,68.52
2018-11-05T16:18:17.011Z,91.30
2018-11-05T16:20:47.343Z,85.57
2018-11-05T16:23:17.796Z,76.15
2018-11-05T16:25:48.306Z,67.35
2018-11-05T16:28:18.773Z,64.85
2018-11-05T16:30:49.209Z,57.10
2018-11-05T16:33:19.689Z,60.38
2018-11-05T16:35:50.144Z,70.87
2018-11-05T16:38:20.724Z,85.57
2018-11-05T16:40:51.160Z,73.97
2018-11-05T16:43:21.620Z,114.40
2018-11-05T16:45:52.153Z,81.92
2018-11-05T16:48:22.585Z,77.75
2018-11-05T16:50:53.048Z,89.32
2018-11-05T16:53:23.652Z,83.95
2018-11-05T16:55:54.125Z,74.60
2018-11-05T16:58:24.691Z,76.33
2018-11-05T17:00:55.281Z,81.10
2018-11-05T17:03:25.769Z,156.30
2018-11-05T17:05:56.184Z,213.30
2018-11-05T17:08:26.658Z,223.72
2018-11-05T17:10:57.186Z,147.98
2018-11-05T17:13:27.753Z,160.95
2018-11-05T17:15:58.331Z,166.95
2018-11-05T17:18:28.939Z,164.30
2018-11-05T17:20:59.483Z,182.65
2018-11-05T17:23:29.998Z,190.12
2018-11-05T17:26:00.520Z,156.40
2018-11-05T17:28:31.074Z,144.30
2018-11-05T17:31:01.510Z,139.72
2018-11-05T17:33:32.010Z,142.13
2018-11-05T17:36:02.586Z,129.97
2018-11-05T17:38:33.095Z,134.95
2018-11-05T17:41:03.601Z,127.78
2018-11-05T17:43:34.183Z,148.10
2018-11-05T17:46:04.975Z,187.82
2018-11-05T17:48:35.414Z,190.50
2018-11-05T17:51:06.221Z,196.05
2018-11-05T17:53:36.838Z,159.82
2018-11-05T17:56:07.385Z,167.05
2018-11-05T17:58:37.883Z,176.68
2018-11-05T18:01:08.339Z,164.28
2018-11-05T18:03:38.834Z,201.47
2018-11-05T18:06:09.264Z,185.90
2018-11-05T18:08:39.741Z,166.65
2018-11-05T18:11:10.207Z,161.95
2018-11-05T18:13:40.687Z,151.57
2018-11-05T18:16:11.176Z,132.03
2018-11-05T18:18:41.827Z,96.35
2018-11-05T18:21:12.261Z,96.67
2018-11-05T18:23:42.844Z,107.60
2018-11-05T18:26:13.658Z,91.08
2018-11-05T18:28:44.186Z,89.55
2018-11-05T18:31:14.820Z,85.12
2018-11-05T18:33:45.186Z,77.65
2018-11-05T18:36:15.652Z,79.12
2018-11-05T18:38:46.228Z,81.72
2018-11-05T18:41:16.684Z,75.70
2018-11-05T18:43:47.102Z,78.22
2018-11-05T18:46:17.585Z,76.25
2018-11-05T18:48:48.111Z,82.82
2018-11-05T18:51:18.606Z,80.83
2018-11-05T18:53:49.061Z,85.53
2018-11-05T18:56:19.557Z,84.42
2018-11-05T18:58:49.990Z,86.00
2018-11-05T19:01:20.475Z,86.97
2018-11-05T19:03:51.148Z,76.92
2018-11-05T19:06:21.511Z,89.42
2018-11-05T19:08:52.035Z,82.60
2018-11-05T19:11:22.518Z,77.03
2018-11-05T19:13:53.000Z,75.00
2018-11-05T19:16:23.514Z,80.45
2018-11-05T19:18:54.061Z,75.37
2018-11-05T19:21:24.607Z,71.40
2018-11-05T19:23:55.274Z,73.17
2018-11-05T19:26:25.591Z,78.85
2018-11-05T19:28:56.093Z,69.72
2018-11-05T19:31:26.609Z,77.42
2018-11-05T19:33:57.177Z,75.55
2018-11-05T19:36:27.524Z,76.25
2018-11-05T19:38:58.074Z,78.70
2018-11-05T19:41:28.601Z,77.50
2018-11-05T19:43:59.077Z,75.78
2018-11-05T19:46:29.544Z,74.07
2018-11-05T19:49:00.004Z,74.32
2018-11-05T19:51:30.668Z,84.47
2018-11-05T19:54:01.174Z,101.53
2018-11-05T19:56:31.760Z,85.85
2018-11-05T19:59:02.181Z,89.62
2018-11-05T20:01:32.720Z,84.72
2018-11-05T20:04:03.348Z,80.25
2018-11-05T20:06:34.057Z,77.75
2018-11-05T20:09:05.654Z,83.72
2018-11-05T20:11:36.427Z,86.80
2018-11-05T20:14:07.091Z,83.97
2018-11-05T20:16:37.706Z,91.55
2018-11-05T20:19:08.390Z,108.95
2018-11-05T20:21:39.017Z,96.47
2018-11-05T20:24:09.618Z,93.55
2018-11-05T20:26:40.603Z,130.30
2018-11-05T20:29:11.351Z,102.60
2018-11-05T20:31:42.265Z,103.35
2018-11-05T20:34:13.124Z,92.72
2018-11-05T20:36:44.035Z,95.42
2018-11-05T20:39:14.633Z,97.95
2018-11-05T20:41:45.441Z,100.62
2018-11-05T20:44:16.139Z,94.28
2018-11-05T20:46:47.012Z,101.97
2018-11-05T20:49:18.549Z,101.30
2018-11-05T20:51:49.905Z,92.53
2018-11-05T20:54:20.443Z,92.78
2018-11-05T20:56:51.145Z,107.50
2018-11-05T20:59:21.850Z,102.95
2018-11-05T21:01:52.410Z,107.27
2018-11-05T21:04:23.022Z,103.78
2018-11-05T21:06:53.794Z,94.72
2018-11-05T21:09:27.186Z,118.25
2018-11-05T21:11:57.730Z,112.17
2018-11-05T21:14:28.364Z,121.02
2018-11-05T21:16:58.793Z,95.07
2018-11-05T21:19:29.402Z,85.50
2018-11-05T21:21:59.878Z,83.67
2018-11-05T21:24:30.290Z,88.42
2018-11-05T21:27:00.858Z,134.47
2018-11-05T21:29:31.240Z,114.10
2018-11-05T21:32:01.679Z,105.78
2018-11-05T21:34:32.143Z,95.83
2018-11-05T21:37:02.623Z,98.45
2018-11-05T21:39:33.923Z,88.50
2018-11-05T21:42:04.775Z,82.37
2018-11-05T21:44:35.240Z,84.92
2018-11-05T21:47:05.762Z,86.80
2018-11-05T21:49:36.341Z,84.50
2018-11-05T21:52:07.274Z,80.42
2018-11-05T21:54:37.933Z,82.27
2018-11-05T21:57:08.432Z,81.70
2018-11-05T21:59:38.952Z,81.80
2018-11-05T22:02:09.509Z,82.12
2018-11-05T22:04:39.994Z,75.10
2018-11-05T22:07:10.447Z,75.95
2018-11-05T22:09:40.964Z,80.25
2018-11-05T22:12:11.431Z,77.97
2018-11-05T22:14:41.924Z,82.08
2018-11-05T22:17:12.416Z,78.85
2018-11-05T22:19:42.908Z,88.75
2018-11-05T22:22:13.366Z,84.15
2018-11-05T22:24:43.877Z,84.87
2018-11-05T22:27:14.386Z,81.63
2018-11-05T22:29:44.800Z,70.80
2018-11-05T22:32:15.235Z,98.52
2018-11-05T22:34:45.703Z,119.05
2018-11-05T22:37:16.556Z,121.55
2018-11-05T22:39:46.792Z,127.05
2018-11-05T22:42:17.222Z,116.77
2018-11-05T22:44:47.709Z,156.00
2018-11-05T22:47:18.245Z,622.67
2018-11-05T22:49:48.689Z,778.58
2018-11-05T22:52:19.162Z,491.55
2018-11-05T22:54:49.657Z,239.05
2018-11-05T22:57:20.111Z,287.08
2018-11-05T22:59:50.525Z,273.95
2018-11-05T23:02:21.026Z,264.82
2018-11-05T23:04:51.524Z,177.30
2018-11-05T23:07:21.971Z,132.97
2018-11-05T23:09:52.527Z,115.55
2018-11-05T23:12:22.910Z,116.17
2018-11-05T23:14:53.453Z,116.80
2018-11-05T23:17:23.936Z,117.05
2018-11-05T23:19:54.448Z,151.10
2018-11-05T23:22:25.111Z,135.80
2018-11-05T23:24:55.568Z,161.62
2018-11-05T23:27:28.082Z,164.82
2018-11-05T23:29:58.596Z,121.35
2018-11-05T23:32:29.046Z,136.47
2018-11-05T23:34:59.547Z,101.27
2018-11-05T23:37:29.986Z,96.28
2018-11-05T23:40:00.481Z,109.48
2018-11-05T23:42:30.942Z,110.42
2018-11-05T23:45:01.447Z,109.32
2018-11-05T23:47:31.889Z,106.03
2018-11-05T23:50:02.412Z,95.38
2018-11-05T23:52:32.880Z,94.25
2018-11-05T23:55:03.345Z,91.35
2018-11-05T23:57:33.836Z,95.85
